createdAt,value
2023-04-14T04:00:28.688Z,0.00
2023-04-14T04:05:28.610Z,4.00
2023-04-14T04:10:28.560Z,4.00
2023-04-14T04:15:28.527Z,12.00
2023-04-14T04:20:28.513Z,24.00
2023-04-14T04:25:28.392Z,56.00
2023-04-14T04:30:28.336Z,116.00
2023-04-14T04:35:28.309Z,208.00
2023-04-14T04:40:28.249Z,348.00
2023-04-14T04:45:28.171Z,528.00
2023-04-14T04:50:28.121Z,780.00
2023-04-14T04:55:28.098Z,1080.00
2023-04-14T05:00:28.073Z,1400.00
2023-04-14T05:05:27.976Z,1764.00
2023-04-14T05:10:27.914Z,2216.00
2023-04-14T05:15:27.887Z,2664.00
2023-04-14T05:20:27.947Z,3124.00
2023-04-14T05:25:27.776Z,3608.00
2023-04-14T05:30:27.723Z,4088.00
2023-04-14T05:35:27.670Z,4848.00
2023-04-14T05:40:27.611Z,9028.00
2023-04-14T05:45:27.541Z,12600.00
2023-04-14T05:50:27.495Z,26624.00
2023-04-14T05:55:27.455Z,28704.00
2023-04-14T06:00:28.001Z,26560.00
2023-04-14T06:05:27.473Z,25280.00
2023-04-14T06:10:27.262Z,25184.00
2023-04-14T06:15:27.244Z,26048.00
2023-04-14T06:20:27.193Z,27712.00
2023-04-14T06:25:27.110Z,28800.00
2023-04-14T06:30:27.065Z,23552.00
2023-04-14T06:35:33.619Z,23136.00
2023-04-14T06:40:28.001Z,23264.00
2023-04-14T06:45:26.881Z,22560.00
2023-04-14T06:50:26.856Z,22592.00
2023-04-14T06:55:26.786Z,19200.00
2023-04-14T07:00:26.780Z,19744.00
2023-04-14T07:05:26.697Z,31520.00
2023-04-14T07:10:26.833Z,19264.00
2023-04-14T07:15:26.560Z,14744.00
2023-04-14T07:20:26.575Z,14460.00
2023-04-14T07:25:26.466Z,12480.00
2023-04-14T07:30:26.459Z,11908.00
2023-04-14T07:35:26.347Z,11040.00
2023-04-14T07:40:26.404Z,10492.00
2023-04-14T07:45:26.226Z,9628.00
2023-04-14T07:50:26.285Z,8648.00
2023-04-14T07:55:27.475Z,7680.00
2023-04-14T08:00:26.096Z,7240.00
2023-04-14T08:05:26.108Z,7000.00
2023-04-14T08:10:25.956Z,6728.00
2023-04-14T08:15:25.909Z,6592.00
2023-04-14T08:20:25.858Z,6480.00
2023-04-14T08:25:25.783Z,6344.00
2023-04-14T08:30:25.745Z,6280.00
2023-04-14T08:35:35.233Z,6220.00
2023-04-14T08:40:26.682Z,6164.00
2023-04-14T08:45:25.640Z,6116.00
2023-04-14T08:50:25.532Z,6092.00
2023-04-14T08:55:25.604Z,6068.00
2023-04-14T09:00:25.427Z,6080.00
2023-04-14T09:05:25.364Z,6052.00
2023-04-14T09:10:25.319Z,6120.00
2023-04-14T09:15:25.247Z,6176.00
2023-04-14T09:20:36.794Z,6320.00
2023-04-14T09:25:26.155Z,6360.00
2023-04-14T09:30:25.061Z,4120.00
2023-04-14T09:35:25.005Z,6980.00
2023-04-14T09:40:24.978Z,7252.00
2023-04-14T09:45:24.926Z,6396.00
2023-04-14T09:50:24.876Z,7000.00
2023-04-14T09:55:24.806Z,7316.00
2023-04-14T10:00:24.778Z,6788.00
2023-04-14T10:05:24.713Z,6572.00
2023-04-14T10:10:24.778Z,6716.00
2023-04-14T10:15:24.606Z,6956.00
2023-04-14T10:20:24.574Z,7292.00
2023-04-14T10:25:24.494Z,7084.00
2023-04-14T10:30:24.451Z,7344.00
2023-04-14T10:35:24.394Z,7248.00
2023-04-14T10:40:24.344Z,7200.00
2023-04-14T10:45:24.272Z,7532.00
2023-04-14T10:50:24.219Z,8216.00
2023-04-14T10:55:24.176Z,8036.00
2023-04-14T11:00:24.105Z,6300.00
2023-04-14T11:05:24.037Z,9080.00
2023-04-14T11:10:23.989Z,9156.00
2023-04-14T11:15:23.953Z,6296.00
2023-04-14T11:20:23.975Z,7992.00
2023-04-14T11:25:25.035Z,7524.00
2023-04-14T11:30:23.780Z,7988.00
2023-04-14T11:35:23.708Z,8120.00
2023-04-14T11:40:23.690Z,8756.00
2023-04-14T11:45:23.770Z,9552.00
2023-04-14T11:50:23.536Z,8544.00
2023-04-14T11:55:23.481Z,7700.00
2023-04-14T12:00:23.459Z,5592.00
2023-04-14T12:05:23.378Z,9016.00
2023-04-14T12:10:23.326Z,7784.00
2023-04-14T12:15:23.260Z,8604.00
2023-04-14T12:20:23.273Z,8576.00
2023-04-14T12:25:23.144Z,7976.00
2023-04-14T12:30:23.090Z,8328.00
2023-04-14T12:35:23.040Z,6020.00
2023-04-14T12:40:22.991Z,8524.00
2023-04-14T12:45:22.935Z,6380.00
2023-04-14T12:50:22.864Z,8964.00
2023-04-14T12:55:22.856Z,9100.00
2023-04-14T13:00:22.781Z,9068.00
2023-04-14T13:05:22.711Z,8616.00
2023-04-14T13:10:22.647Z,9248.00
2023-04-14T13:16:12.119Z,9528.00
2023-04-14T13:20:22.559Z,9532.00
2023-04-14T13:25:22.481Z,9908.00
2023-04-14T13:30:22.435Z,9996.00
2023-04-14T13:35:22.388Z,9992.00
2023-04-14T13:40:22.368Z,10248.00
2023-04-14T13:45:22.290Z,9872.00
2023-04-14T13:50:22.219Z,10020.00
2023-04-14T13:55:22.160Z,9400.00
2023-04-14T14:00:22.142Z,9336.00
2023-04-14T14:05:22.051Z,9424.00
2023-04-14T14:10:21.991Z,9352.00
2023-04-14T14:15:21.940Z,9340.00
2023-04-14T14:20:21.915Z,9208.00
2023-04-14T14:25:21.855Z,8900.00
2023-04-14T14:30:21.819Z,8552.00
2023-04-14T14:35:21.723Z,6784.00
2023-04-14T14:40:21.686Z,5348.00
2023-04-14T14:45:31.359Z,5312.00
2023-04-14T14:50:22.555Z,4968.00
2023-04-14T14:55:21.452Z,5172.00
2023-04-14T15:00:21.424Z,5244.00
2023-04-14T15:05:21.347Z,5008.00
2023-04-14T15:10:21.299Z,5024.00
2023-04-14T15:15:21.269Z,5256.00
2023-04-14T15:20:21.249Z,7952.00
2023-04-14T15:25:21.180Z,8208.00
2023-04-14T15:30:21.139Z,7920.00
2023-04-14T15:35:21.093Z,7820.00
2023-04-14T15:40:21.065Z,7620.00
2023-04-14T15:45:20.976Z,7696.00
2023-04-14T15:50:20.921Z,7384.00
2023-04-14T15:55:20.860Z,7236.00
2023-04-14T16:00:20.828Z,7128.00
2023-04-14T16:05:20.873Z,6688.00
2023-04-14T16:10:20.720Z,6436.00
2023-04-14T16:15:20.651Z,5896.00
2023-04-14T16:20:20.627Z,5552.00
2023-04-14T16:25:21.662Z,5172.00
2023-04-14T16:30:20.500Z,4984.00
2023-04-14T16:35:20.441Z,4708.00
2023-04-14T16:40:20.412Z,2940.00
2023-04-14T16:45:20.811Z,2832.00
2023-04-14T16:50:20.313Z,2764.00
2023-04-14T16:55:20.251Z,2680.00
2023-04-14T17:00:20.172Z,2892.00
2023-04-14T17:05:20.264Z,2512.00
2023-04-14T17:10:20.168Z,2496.00
2023-04-14T17:15:19.971Z,2644.00
2023-04-14T17:20:19.935Z,2348.00
2023-04-14T17:25:19.883Z,2120.00
2023-04-14T17:30:19.803Z,1912.00
2023-04-14T17:35:19.758Z,1772.00
2023-04-14T17:40:19.717Z,1664.00
2023-04-14T17:45:19.650Z,1444.00
2023-04-14T17:50:19.581Z,1224.00
2023-04-14T17:55:19.525Z,1016.00
2023-04-14T18:00:19.492Z,844.00
2023-04-14T18:05:19.425Z,656.00
2023-04-14T18:10:19.364Z,472.00
2023-04-14T18:15:19.313Z,340.00
2023-04-14T18:20:19.301Z,228.00
2023-04-14T18:25:20.273Z,140.00
2023-04-14T18:30:19.152Z,80.00
2023-04-14T18:35:19.090Z,40.00
2023-04-14T18:40:19.062Z,20.00
2023-04-14T18:45:18.984Z,12.00
2023-04-14T18:50:18.928Z,4.00
2023-04-14T18:55:18.871Z,0.00
2023-04-14T19:00:18.840Z,0.00
2023-04-14T19:05:18.774Z,0.00
2023-04-14T19:10:18.720Z,0.00
2023-04-14T19:15:18.657Z,0.00
2023-04-14T19:20:18.614Z,0.00
2023-04-14T19:25:18.598Z,0.00
2023-04-14T19:30:18.496Z,0.00
2023-04-14T19:35:18.456Z,0.00
2023-04-14T19:40:18.401Z,0.00
2023-04-14T19:45:18.328Z,0.00
2023-04-14T19:50:18.266Z,0.00
2023-04-14T19:55:18.207Z,0.00
2023-04-14T20:00:18.169Z,0.00
2023-04-14T20:05:18.100Z,0.00
2023-04-14T20:10:18.042Z,0.00
2023-04-14T20:15:17.989Z,0.00
2023-04-14T20:20:17.965Z,0.00
2023-04-14T20:25:17.885Z,0.00
2023-04-14T20:30:17.828Z,0.00
2023-04-14T20:35:17.772Z,0.00
2023-04-14T20:40:17.772Z,0.00
2023-04-14T20:45:17.669Z,0.00
2023-04-14T20:50:17.607Z,0.00
2023-04-14T20:55:17.556Z,0.00
2023-04-14T21:00:17.533Z,0.00
2023-04-14T21:05:17.472Z,0.00
2023-04-14T21:10:17.413Z,0.00
2023-04-14T21:15:47.484Z,0.00
2023-04-14T21:20:18.308Z,0.00
2023-04-14T21:25:17.240Z,0.00
2023-04-14T21:30:17.210Z,0.00
2023-04-14T21:35:17.122Z,0.00
2023-04-14T21:40:17.088Z,0.00
2023-04-14T21:45:17.012Z,0.00
2023-04-14T21:50:16.966Z,0.00
2023-04-14T21:55:16.905Z,0.00
2023-04-14T22:00:16.878Z,0.00
2023-04-14T22:05:16.797Z,0.00
2023-04-14T22:10:16.744Z,0.00
2023-04-14T22:15:16.918Z,0.00
2023-04-14T22:20:16.677Z,0.00
2023-04-14T22:25:16.589Z,0.00
2023-04-14T22:30:16.526Z,0.00
2023-04-14T22:35:16.476Z,0.00
2023-04-14T22:40:16.463Z,0.00
2023-04-14T22:45:16.396Z,0.00
2023-04-14T22:50:16.313Z,0.00
2023-04-14T22:55:16.277Z,0.00
2023-04-14T23:00:16.233Z,0.00
2023-04-14T23:05:16.155Z,0.00
2023-04-14T23:10:16.101Z,0.00
2023-04-14T23:15:16.052Z,0.00
2023-04-14T23:20:16.014Z,0.00
2023-04-14T23:25:15.941Z,0.00
